»·PEaware :: N667SB KBOS-KBUF

N667SB :: KBOS-KBUF

FLIGHT INFORMATION

Flight Status: Arrived
Operator: Privately registered:
United States
More flights under this callsign
Pilot: Dean S. (16265)
Aircraft: CESSNA 421 GOLDEN EAGLE
(C421)
More flights by this aircraft type
Origin: KBOS Logan Intl
United States
Destination: KBUF Buffalo Niagara Intl
United States
More flights between these airports :: More routes between these airports
Route: GDM ALB
File this flight plan on PilotEdge
Remarks:
Altitude:
(Current/Filed)
16,500ft
Speed:
(Current/Filed)
250kts
Departed: 23-Aug-18 09:26 AM
Arrived: 23-Aug-18 10:58 AM
Distance/Time
Traveled:
342nm/1:32
Distance/Time
To Go:
Arrived

Flight Plot

Page will automatically refresh every two minutes.

Flight plan parsing failed; only flown route is shown


Map Options




Map Legend


Flown Route
Filed Route
Departure Airport
Arrival Airport
Navaid (VOR, NDB)
Fix

Horizontal Profiles

Position Reports

Time Latitude Longitude Heading Altitude Ground
Speed
23-Aug-18 09:17 42.363977 -71.020653 298 23ft 0kts
23-Aug-18 09:18 42.363977 -71.020653 298 23ft 0kts
23-Aug-18 09:19 42.363977 -71.020653 298 23ft 0kts
23-Aug-18 09:20 42.364063 -71.020704 19 23ft 2kts
23-Aug-18 09:21 42.362678 -71.022024 313 23ft 9kts
23-Aug-18 09:22 42.362079 -71.022586 192 23ft 0kts
23-Aug-18 09:23 42.361412 -71.022757 129 23ft 11kts
23-Aug-18 09:24 42.359361 -71.018371 112 23ft 13kts
23-Aug-18 09:25 42.358754 -71.014894 98 23ft 0kts
23-Aug-18 09:26 42.358730 -71.014705 101 23ft 9kts
23-Aug-18 09:27 42.378163 -71.004031 22 635ft 136kts
23-Aug-18 09:28 42.408233 -71.038002 297 1887ft 174kts
23-Aug-18 09:29 42.427786 -71.095434 288 3620ft 178kts
23-Aug-18 09:30 42.410397 -71.153667 238 5507ft 168kts
23-Aug-18 09:31 42.400506 -71.214064 278 7412ft 170kts
23-Aug-18 09:32 42.411066 -71.277570 283 9316ft 176kts
23-Aug-18 09:33 42.422707 -71.343511 283 11224ft 183kts
23-Aug-18 09:34 42.434677 -71.411757 283 13132ft 188kts
23-Aug-18 09:35 42.446803 -71.481178 283 15032ft 191kts
23-Aug-18 09:36 42.459594 -71.554688 283 16186ft 224kts
23-Aug-18 09:37 42.474769 -71.642304 283 16185ft 247kts
23-Aug-18 09:38 42.490422 -71.733367 283 16188ft 249kts
23-Aug-18 09:39 42.506144 -71.825205 283 16190ft 249kts
23-Aug-18 09:40 42.521759 -71.916809 282 16193ft 249kts
23-Aug-18 09:41 42.537308 -72.008491 282 16196ft 249kts
23-Aug-18 09:42 42.551641 -72.100787 278 16207ft 250kts
23-Aug-18 09:43 42.562453 -72.193780 279 16208ft 250kts
23-Aug-18 09:44 42.573678 -72.287037 279 16209ft 250kts
23-Aug-18 09:45 42.584875 -72.380001 279 16208ft 250kts
23-Aug-18 09:46 42.596051 -72.473326 279 16204ft 250kts
23-Aug-18 09:47 42.607120 -72.566406 278 16203ft 250kts
23-Aug-18 09:48 42.618110 -72.659491 278 16203ft 250kts
23-Aug-18 09:49 42.629056 -72.752878 278 16211ft 250kts
23-Aug-18 09:50 42.639889 -72.845983 278 16218ft 250kts
23-Aug-18 09:51 42.650688 -72.939480 278 16224ft 250kts
23-Aug-18 09:52 42.661375 -73.032692 278 16228ft 250kts
23-Aug-18 09:53 42.671953 -73.125655 278 16229ft 250kts
23-Aug-18 09:54 42.682565 -73.219625 278 16230ft 250kts
23-Aug-18 09:55 42.693028 -73.312988 278 16231ft 250kts
23-Aug-18 09:56 42.703416 -73.406398 278 16232ft 250kts
23-Aug-18 09:57 42.713765 -73.500169 278 16233ft 250kts
23-Aug-18 09:58 42.724011 -73.593673 278 16236ft 250kts
23-Aug-18 09:59 42.734229 -73.687496 278 16239ft 250kts
23-Aug-18 10:00 42.744336 -73.781044 278 16239ft 250kts
23-Aug-18 10:01 42.751444 -73.875102 274 16239ft 250kts
23-Aug-18 10:02 42.756824 -73.969770 274 16240ft 250kts
23-Aug-18 10:03 42.762320 -74.064090 274 16240ft 250kts
23-Aug-18 10:04 42.767789 -74.158472 274 16235ft 250kts
23-Aug-18 10:05 42.773209 -74.253181 274 16235ft 250kts
23-Aug-18 10:06 42.778536 -74.347549 274 16236ft 250kts
23-Aug-18 10:07 42.783799 -74.442251 274 16238ft 250kts
23-Aug-18 10:08 42.788974 -74.536672 274 16240ft 250kts
23-Aug-18 10:09 42.794071 -74.631087 273 16243ft 250kts
23-Aug-18 10:10 42.799101 -74.725839 273 16246ft 250kts
23-Aug-18 10:11 42.803980 -74.820302 273 16250ft 250kts
23-Aug-18 10:12 42.808297 -74.914770 272 16253ft 250kts
23-Aug-18 10:13 42.812465 -75.009555 273 16267ft 250kts
23-Aug-18 10:14 42.817079 -75.104047 273 16268ft 250kts
23-Aug-18 10:15 42.820917 -75.183131 273 16268ft 250kts
23-Aug-18 10:16 42.826174 -75.293441 273 16269ft 250kts
23-Aug-18 10:17 42.829861 -75.372232 273 16269ft 250kts
23-Aug-18 10:18 42.834948 -75.482880 273 16272ft 250kts
23-Aug-18 10:19 42.838504 -75.561681 273 16272ft 250kts
23-Aug-18 10:20 42.843400 -75.672182 273 16273ft 250kts
23-Aug-18 10:21 42.846821 -75.750893 273 16273ft 250kts
23-Aug-18 10:22 42.850854 -75.845327 273 16274ft 250kts
23-Aug-18 10:23 42.854824 -75.940138 273 16274ft 250kts
23-Aug-18 10:24 42.858700 -76.034583 272 16279ft 250kts
23-Aug-18 10:25 42.862500 -76.129006 272 16280ft 250kts
23-Aug-18 10:26 42.866227 -76.223808 272 16281ft 250kts
23-Aug-18 10:27 42.869864 -76.318271 272 16282ft 250kts
23-Aug-18 10:28 42.873474 -76.413614 272 15936ft 252kts
23-Aug-18 10:29 42.877012 -76.508441 272 15237ft 249kts
23-Aug-18 10:30 42.880409 -76.602607 272 14538ft 248kts
23-Aug-18 10:31 42.883719 -76.696614 272 13836ft 247kts
23-Aug-18 10:32 42.886918 -76.789677 272 13137ft 244kts
23-Aug-18 10:33 42.890025 -76.882261 272 12438ft 244kts
23-Aug-18 10:34 42.893056 -76.974811 272 11737ft 243kts
23-Aug-18 10:35 42.895984 -77.066520 272 11038ft 241kts
23-Aug-18 10:36 42.898823 -77.157820 272 10336ft 239kts
23-Aug-18 10:37 42.901554 -77.247989 272 9637ft 237kts
23-Aug-18 10:38 42.904190 -77.337345 272 8937ft 235kts
23-Aug-18 10:39 42.906741 -77.426141 272 8236ft 232kts
23-Aug-18 10:40 42.913803 -77.513225 280 7538ft 230kts
23-Aug-18 10:41 42.927587 -77.597622 283 6966ft 225kts
23-Aug-18 10:42 42.941846 -77.680571 283 6464ft 223kts
23-Aug-18 10:43 42.955896 -77.762890 283 5963ft 221kts
23-Aug-18 10:44 42.969729 -77.844382 283 5463ft 220kts
23-Aug-18 10:45 42.983412 -77.925362 282 4963ft 218kts
23-Aug-18 10:46 42.996989 -78.006091 282 4462ft 217kts
23-Aug-18 10:47 43.011348 -78.084884 284 3960ft 207kts
23-Aug-18 10:48 43.024159 -78.158751 282 3820ft 192kts
23-Aug-18 10:49 43.036063 -78.230189 282 3810ft 194kts
23-Aug-18 10:50 43.047968 -78.302256 282 3807ft 195kts
23-Aug-18 10:51 43.059946 -78.374927 282 3768ft 195kts
23-Aug-18 10:52 43.071835 -78.447353 282 3748ft 195kts
23-Aug-18 10:53 43.083077 -78.519963 272 3687ft 197kts
23-Aug-18 10:54 43.054185 -78.578762 225 3088ft 163kts
23-Aug-18 10:55 43.024490 -78.619215 219 2103ft 148kts
23-Aug-18 10:56 42.996425 -78.655298 223 1469ft 132kts
23-Aug-18 10:57 42.972968 -78.686865 222 1076ft 105kts
23-Aug-18 10:58 42.952828 -78.713338 223 803ft 102kts
23-Aug-18 10:59 42.940516 -78.729545 220 695ft 22kts
23-Aug-18 11:00 42.936535 -78.729835 134 695ft 0kts

Navigation Log

Ident Type
Flight plan parsing failed, navigation log unavailable